Aérodrome :
LOGIN :

S'inscrire | Disclaimer

   EN    FR    IT 

 










Légende :    VFR   VFR Marginal   IFR   IFR Intensif   IFR Très Intensif
Visi : 
Plafond : 
>= 8 km
>= 3000ft
5 à 8 km
1000 à 3000 ft
1500m à 5 km
500 à 1000 ft
800 à 1500m
200 à 500 ft
< 800m
< 200 ft
Symboles :   Orages  Brouillard  Fortes neiges  Fortes précipitations  Vent > 20 kt
SIGMETs :   Divers  Orages  Givrage  Turbulence  Onde Orograph.  Cendres Volcan.







- Altitude de l'aérodrome : 2697 ft
- Code IATA : BLJ


DABT - Batna

DERNIER METAR :
  • 222300Z 22004KT 9999 SCT023 02/M00 Q1008

METARs EXPIRÉS :
  • 222200Z 26009KT 9999 SCT023 02/M00 Q1009
  • 222100Z 26006KT 9999 BKN023 02/M00 Q1009

TAF TAF DABT
Valide du 22 à 18h jusqu'au 23 à 18h UTC


221700Z 2218/2318 30012KT 9999 FEW015TCU BKN023
BECMG 2220/2222 24006KT
PROB30
TEMPO 2300/2312 2000 -RASN BKN006
BECMG 2308/2310 32014KT
Pas de NOTAMs connus pour ce terrain.



MET'MAP, la Météo Aéronautique d'un coup d'oeil ! - Copyright ORBIFLY Décembre 2007 - Disclaimer

ORBIFLY MET'MAP TEAM :

Programmation & Développement : Alexandra Zaïnal
Conception & Développement : Baudouin d'Aumeries
Co-Programmation & Développement : Marc-Olivier Méhu
Soutien technique & logistique : Manuel Goepfert

Contact : metmap@orbifly.com




SOURCES & CREDITS :

   NOAA